OCN4TC EDDF-LGKO
Flight info
| Callsign | OCN4TC |
|---|---|
| Flight time | N/A |
| Altitude | 35000 |
| Route | CINDY8S CINDY Z74 LAMPU DCT NOMBO Y161 MAH DCT LATLO DCT OBEDI DCT DIPSA DCT MOSAV/N0436F370 DCT GUBOK DCT VEBAR DCT VABEK UL603 OLOTA DCT DISOR UL608 FSK DCT MES UN139 OKORO N139 LURUS L995 KOPAR |
| Aircraft | A320/M-SDE3FGHIRWY/LB1 |
Departure
| Time | 2026-05-06 06:51 |
|---|---|
| Airport | Frankfurt Main Airport (EDDF) |
Arrival
| Time | N/A |
|---|---|
| Airport | Kos International Airport "Ippokratis" (LGKO) |
| Time | Latitude | Longitude | Altitude | Speed | Heading |
|---|---|---|---|---|---|
| 2026-05-06 06:15 | 50.04390 | 8.56168 | 362 ft | 0 kts | 155° |
| 2026-05-06 06:39 | 50.04394 | 8.56165 | 356 ft | 3 kts | 154° |
| 2026-05-06 06:39 | 50.04418 | 8.56147 | 361 ft | 4 kts | 155° |
| 2026-05-06 06:39 | 50.04441 | 8.56135 | 363 ft | 4 kts | 198° |
| 2026-05-06 06:40 | 50.04459 | 8.56153 | 357 ft | 4 kts | 227° |
| 2026-05-06 06:40 | 50.04463 | 8.56163 | 364 ft | 2 kts | 250° |
| 2026-05-06 06:40 | 50.04455 | 8.56127 | 362 ft | 4 kts | 249° |
| 2026-05-06 06:40 | 50.04453 | 8.56118 | 361 ft | 0 kts | 249° |
| 2026-05-06 06:42 | 50.04450 | 8.56104 | 358 ft | 5 kts | 249° |
| 2026-05-06 06:43 | 50.04438 | 8.56057 | 360 ft | 4 kts | 245° |
| 2026-05-06 06:43 | 50.04387 | 8.56027 | 356 ft | 13 kts | 164° |
| 2026-05-06 06:43 | 50.04289 | 8.56067 | 354 ft | 16 kts | 191° |
| 2026-05-06 06:43 | 50.04234 | 8.55921 | 356 ft | 17 kts | 250° |
| 2026-05-06 06:44 | 50.04188 | 8.55725 | 357 ft | 23 kts | 250° |
| 2026-05-06 06:44 | 50.04128 | 8.55481 | 353 ft | 24 kts | 249° |
| 2026-05-06 06:44 | 50.04071 | 8.55236 | 355 ft | 24 kts | 250° |
| 2026-05-06 06:44 | 50.04013 | 8.54993 | 354 ft | 24 kts | 250° |
| 2026-05-06 06:45 | 50.03950 | 8.54730 | 357 ft | 26 kts | 250° |
| 2026-05-06 06:45 | 50.03892 | 8.54492 | 355 ft | 19 kts | 250° |
| 2026-05-06 06:45 | 50.03833 | 8.54307 | 351 ft | 20 kts | 234° |
| 2026-05-06 06:45 | 50.03772 | 8.54110 | 352 ft | 21 kts | 249° |
| 2026-05-06 06:46 | 50.03720 | 8.53895 | 353 ft | 22 kts | 249° |
| 2026-05-06 06:46 | 50.03667 | 8.53667 | 344 ft | 23 kts | 249° |
| 2026-05-06 06:46 | 50.03606 | 8.53426 | 335 ft | 24 kts | 249° |
| 2026-05-06 06:46 | 50.03547 | 8.53179 | 334 ft | 21 kts | 250° |
| 2026-05-06 06:47 | 50.03514 | 8.53043 | 336 ft | 12 kts | 250° |
| 2026-05-06 06:47 | 50.03481 | 8.52915 | 334 ft | 14 kts | 246° |
| 2026-05-06 06:47 | 50.03451 | 8.52801 | 336 ft | 8 kts | 249° |
| 2026-05-06 06:47 | 50.03435 | 8.52736 | 333 ft | 4 kts | 250° |
| 2026-05-06 06:48 | 50.03432 | 8.52723 | 331 ft | 1 kts | 249° |
| 2026-05-06 06:48 | 50.03425 | 8.52696 | 332 ft | 7 kts | 249° |
| 2026-05-06 06:48 | 50.03405 | 8.52614 | 332 ft | 8 kts | 246° |
| 2026-05-06 06:48 | 50.03360 | 8.52594 | 333 ft | 6 kts | 180° |
| 2026-05-06 06:49 | 50.03355 | 8.52594 | 334 ft | 0 kts | 180° |
| 2026-05-06 06:50 | 50.03311 | 8.52594 | 335 ft | 16 kts | 180° |
| 2026-05-06 06:50 | 50.02977 | 8.52598 | 335 ft | 81 kts | 180° |
| 2026-05-06 06:50 | 50.02223 | 8.52606 | 335 ft | 134 kts | 179° |
| 2026-05-06 06:50 | 50.01168 | 8.52614 | 462 ft | 163 kts | 180° |
| 2026-05-06 06:51 | 50.00066 | 8.52636 | 1249 ft | 156 kts | 182° |
| 2026-05-06 06:51 | 49.98937 | 8.52660 | 1697 ft | 172 kts | 183° |
| 2026-05-06 06:51 | 49.97673 | 8.52701 | 2027 ft | 192 kts | 180° |
| 2026-05-06 06:51 | 49.96360 | 8.53508 | 2295 ft | 224 kts | 140° |
| 2026-05-06 06:52 | 49.95435 | 8.55587 | 2880 ft | 240 kts | 123° |
| 2026-05-06 06:52 | 49.94618 | 8.57874 | 3678 ft | 243 kts | 121° |
| 2026-05-06 06:52 | 49.94024 | 8.60350 | 4478 ft | 250 kts | 99° |
| 2026-05-06 06:52 | 49.93955 | 8.62151 | 5014 ft | 253 kts | 93° |
| 2026-05-06 06:53 | 49.93893 | 8.64907 | 5797 ft | 257 kts | 96° |
| 2026-05-06 06:53 | 49.93553 | 8.67636 | 6529 ft | 258 kts | 114° |
| 2026-05-06 06:53 | 49.92721 | 8.70079 | 7263 ft | 256 kts | 131° |
| 2026-05-06 06:53 | 49.91444 | 8.72121 | 7627 ft | 272 kts | 148° |
| 2026-05-06 06:54 | 49.89855 | 8.73824 | 8234 ft | 281 kts | 148° |
| 2026-05-06 06:54 | 49.88397 | 8.75907 | 8993 ft | 290 kts | 133° |
| 2026-05-06 06:54 | 49.87289 | 8.78563 | 9766 ft | 296 kts | 122° |
| 2026-05-06 06:54 | 49.86273 | 8.81413 | 10209 ft | 313 kts | 122° |
| 2026-05-06 06:55 | 49.85190 | 8.84423 | 10389 ft | 335 kts | 122° |
| 2026-05-06 06:55 | 49.83878 | 8.87459 | 10870 ft | 341 kts | 135° |
| 2026-05-06 06:55 | 49.82214 | 8.90101 | 11543 ft | 344 kts | 138° |
| 2026-05-06 06:55 | 49.80522 | 8.92750 | 12254 ft | 347 kts | 138° |
| 2026-05-06 06:56 | 49.78818 | 8.95421 | 12930 ft | 350 kts | 138° |
| 2026-05-06 06:56 | 49.77095 | 8.98118 | 13637 ft | 353 kts | 138° |
| 2026-05-06 06:56 | 49.75363 | 9.00824 | 14243 ft | 355 kts | 138° |
| 2026-05-06 06:56 | 49.73614 | 9.03548 | 14852 ft | 358 kts | 138° |
| 2026-05-06 06:57 | 49.71853 | 9.06299 | 15425 ft | 362 kts | 137° |
| 2026-05-06 06:57 | 49.70083 | 9.09109 | 16010 ft | 365 kts | 137° |
| 2026-05-06 06:57 | 49.68312 | 9.11947 | 16596 ft | 368 kts | 137° |
| 2026-05-06 06:57 | 49.66530 | 9.14811 | 17176 ft | 371 kts | 137° |
| 2026-05-06 06:58 | 49.64740 | 9.17683 | 17762 ft | 374 kts | 137° |
| 2026-05-06 06:58 | 49.62928 | 9.20586 | 18300 ft | 377 kts | 137° |
| 2026-05-06 06:58 | 49.61125 | 9.23461 | 18775 ft | 380 kts | 137° |
| 2026-05-06 06:58 | 49.59274 | 9.26395 | 19257 ft | 382 kts | 137° |
| 2026-05-06 06:59 | 49.57414 | 9.29335 | 19749 ft | 385 kts | 137° |
| 2026-05-06 06:59 | 49.55530 | 9.32311 | 20220 ft | 388 kts | 137° |
| 2026-05-06 06:59 | 49.53643 | 9.35298 | 20689 ft | 391 kts | 137° |
| 2026-05-06 06:59 | 49.51739 | 9.38310 | 21164 ft | 394 kts | 137° |
| 2026-05-06 07:00 | 49.49826 | 9.41337 | 21615 ft | 396 kts | 137° |
| 2026-05-06 07:00 | 49.47899 | 9.44385 | 22035 ft | 400 kts | 138° |
| 2026-05-06 07:00 | 49.45947 | 9.47464 | 22438 ft | 403 kts | 138° |
| 2026-05-06 07:00 | 49.44001 | 9.50523 | 22850 ft | 406 kts | 138° |
| 2026-05-06 07:01 | 49.41988 | 9.53680 | 23263 ft | 409 kts | 139° |
| 2026-05-06 07:01 | 49.39987 | 9.56812 | 23647 ft | 412 kts | 139° |
| 2026-05-06 07:01 | 49.37977 | 9.59957 | 24023 ft | 414 kts | 139° |
| 2026-05-06 07:01 | 49.35985 | 9.63075 | 24406 ft | 416 kts | 139° |
| 2026-05-06 07:02 | 49.33955 | 9.66253 | 24765 ft | 417 kts | 139° |
| 2026-05-06 07:02 | 49.31917 | 9.69439 | 25109 ft | 420 kts | 140° |
| 2026-05-06 07:02 | 49.29863 | 9.72633 | 25465 ft | 421 kts | 140° |
| 2026-05-06 07:02 | 49.27798 | 9.75835 | 25823 ft | 423 kts | 140° |
| 2026-05-06 07:03 | 49.25725 | 9.79046 | 26179 ft | 424 kts | 140° |
| 2026-05-06 07:03 | 49.23646 | 9.82257 | 26505 ft | 426 kts | 140° |
| 2026-05-06 07:03 | 49.21550 | 9.85488 | 26831 ft | 428 kts | 141° |
| 2026-05-06 07:03 | 49.19445 | 9.88732 | 27176 ft | 430 kts | 141° |
| 2026-05-06 07:04 | 49.17332 | 9.91984 | 27499 ft | 432 kts | 141° |
| 2026-05-06 07:04 | 49.15207 | 9.95249 | 27820 ft | 434 kts | 141° |
| 2026-05-06 07:04 | 49.13075 | 9.98521 | 28151 ft | 436 kts | 141° |
| 2026-05-06 07:04 | 49.10930 | 10.01808 | 28467 ft | 437 kts | 141° |
| 2026-05-06 07:05 | 49.08780 | 10.05097 | 28776 ft | 439 kts | 141° |
| 2026-05-06 07:05 | 49.06620 | 10.08402 | 29091 ft | 440 kts | 141° |
| 2026-05-06 07:05 | 49.04442 | 10.11663 | 29408 ft | 440 kts | 142° |
| 2026-05-06 07:05 | 49.02211 | 10.14872 | 29694 ft | 441 kts | 143° |
| 2026-05-06 07:06 | 48.99951 | 10.18034 | 29931 ft | 442 kts | 144° |
| 2026-05-06 07:06 | 48.97701 | 10.21145 | 30148 ft | 444 kts | 144° |
| 2026-05-06 07:06 | 48.95378 | 10.24353 | 30402 ft | 445 kts | 144° |
| 2026-05-06 07:06 | 48.93119 | 10.27495 | 30648 ft | 446 kts | 143° |
| 2026-05-06 07:07 | 48.90843 | 10.30696 | 30982 ft | 445 kts | 143° |
| 2026-05-06 07:07 | 48.88583 | 10.33894 | 31326 ft | 444 kts | 143° |
| 2026-05-06 07:07 | 48.86321 | 10.37095 | 31660 ft | 443 kts | 143° |
| 2026-05-06 07:07 | 48.84069 | 10.40279 | 31993 ft | 442 kts | 143° |
| 2026-05-06 07:08 | 48.81839 | 10.43483 | 32305 ft | 442 kts | 142° |
| 2026-05-06 07:08 | 48.79673 | 10.46798 | 32602 ft | 443 kts | 140° |
| 2026-05-06 07:08 | 48.77557 | 10.50198 | 32914 ft | 443 kts | 139° |
| 2026-05-06 07:08 | 48.75470 | 10.53631 | 33152 ft | 443 kts | 139° |
| 2026-05-06 07:09 | 48.73380 | 10.57076 | 33353 ft | 445 kts | 139° |
| 2026-05-06 07:09 | 48.71277 | 10.60517 | 33615 ft | 445 kts | 140° |
| 2026-05-06 07:09 | 48.69160 | 10.63941 | 33894 ft | 444 kts | 140° |
| 2026-05-06 07:09 | 48.67042 | 10.67327 | 34137 ft | 444 kts | 140° |
| 2026-05-06 07:10 | 48.64904 | 10.70712 | 34368 ft | 444 kts | 140° |
| 2026-05-06 07:10 | 48.62791 | 10.74042 | 34585 ft | 444 kts | 140° |
| 2026-05-06 07:10 | 48.60654 | 10.77407 | 34781 ft | 444 kts | 140° |
| 2026-05-06 07:11 | 48.56402 | 10.84146 | 34823 ft | 442 kts | 140° |
| 2026-05-06 07:11 | 48.52173 | 10.90920 | 34837 ft | 444 kts | 140° |
| 2026-05-06 07:12 | 48.47931 | 10.97713 | 34837 ft | 445 kts | 140° |
| 2026-05-06 07:12 | 48.43647 | 11.04433 | 34837 ft | 444 kts | 141° |
| 2026-05-06 07:13 | 48.39338 | 11.11093 | 34838 ft | 444 kts | 141° |
| 2026-05-06 07:13 | 48.35027 | 11.17751 | 34837 ft | 444 kts | 141° |
| 2026-05-06 07:14 | 48.30715 | 11.24407 | 34813 ft | 444 kts | 141° |
| 2026-05-06 07:14 | 48.26517 | 11.31233 | 34823 ft | 450 kts | 133° |
| 2026-05-06 07:15 | 48.23255 | 11.39392 | 34825 ft | 458 kts | 126° |
| 2026-05-06 07:15 | 48.20134 | 11.47639 | 34827 ft | 457 kts | 127° |
| 2026-05-06 07:16 | 48.16978 | 11.55916 | 34831 ft | 457 kts | 127° |
| 2026-05-06 07:16 | 48.13824 | 11.64185 | 34815 ft | 457 kts | 127° |
| 2026-05-06 07:17 | 48.10672 | 11.72454 | 34825 ft | 457 kts | 127° |
| 2026-05-06 07:17 | 48.07517 | 11.80698 | 34833 ft | 456 kts | 127° |
| 2026-05-06 07:18 | 48.04353 | 11.88921 | 34833 ft | 456 kts | 127° |
| 2026-05-06 07:18 | 48.01177 | 11.97136 | 34807 ft | 456 kts | 127° |
| 2026-05-06 07:19 | 47.98001 | 12.05311 | 34817 ft | 455 kts | 127° |
| 2026-05-06 07:19 | 47.94842 | 12.13439 | 34829 ft | 455 kts | 127° |
| 2026-05-06 07:20 | 47.91679 | 12.21603 | 34828 ft | 455 kts | 127° |
| 2026-05-06 07:20 | 47.88457 | 12.29719 | 34829 ft | 453 kts | 129° |
| 2026-05-06 07:21 | 47.84938 | 12.37447 | 34830 ft | 449 kts | 133° |
| 2026-05-06 07:21 | 47.81275 | 12.45005 | 34832 ft | 449 kts | 133° |
| 2026-05-06 07:22 | 47.77661 | 12.52590 | 34831 ft | 450 kts | 132° |
| 2026-05-06 07:22 | 47.74102 | 12.60249 | 34826 ft | 450 kts | 131° |
| 2026-05-06 07:23 | 47.70579 | 12.67840 | 34829 ft | 449 kts | 131° |
| 2026-05-06 07:23 | 47.67013 | 12.75436 | 34801 ft | 448 kts | 132° |
| 2026-05-06 07:24 | 47.63432 | 12.83022 | 34816 ft | 449 kts | 132° |
| 2026-05-06 07:24 | 47.59857 | 12.90611 | 34820 ft | 449 kts | 132° |
| 2026-05-06 07:25 | 47.56287 | 12.98216 | 34825 ft | 449 kts | 132° |
| 2026-05-06 07:25 | 47.52705 | 13.05807 | 34800 ft | 449 kts | 132° |
| 2026-05-06 07:26 | 47.49108 | 13.13382 | 34816 ft | 449 kts | 132° |
| 2026-05-06 07:26 | 47.45515 | 13.20935 | 34830 ft | 449 kts | 132° |
| 2026-05-06 07:27 | 47.41944 | 13.28441 | 34843 ft | 449 kts | 133° |
| 2026-05-06 07:27 | 47.38347 | 13.35967 | 34850 ft | 448 kts | 133° |
| 2026-05-06 07:28 | 47.34745 | 13.43473 | 34839 ft | 448 kts | 133° |
| 2026-05-06 07:28 | 47.29319 | 13.54753 | 34852 ft | 450 kts | 133° |
| 2026-05-06 07:29 | 47.25698 | 13.62271 | 34857 ft | 450 kts | 133° |
| 2026-05-06 07:29 | 47.22070 | 13.69774 | 34874 ft | 450 kts | 133° |
| 2026-05-06 07:30 | 47.18435 | 13.77261 | 34853 ft | 450 kts | 133° |
| 2026-05-06 07:30 | 47.14786 | 13.84764 | 34861 ft | 451 kts | 133° |
| 2026-05-06 07:31 | 47.11149 | 13.92216 | 34880 ft | 452 kts | 133° |
| 2026-05-06 07:31 | 47.07480 | 13.99714 | 34881 ft | 452 kts | 133° |
| 2026-05-06 07:32 | 47.03807 | 14.07205 | 34891 ft | 452 kts | 133° |
| 2026-05-06 07:32 | 47.00113 | 14.14715 | 35013 ft | 456 kts | 133° |
| 2026-05-06 07:33 | 46.98251 | 14.18489 | 35121 ft | 458 kts | 133° |
| 2026-05-06 07:33 | 46.96379 | 14.22280 | 35308 ft | 459 kts | 133° |
| 2026-05-06 07:33 | 46.94506 | 14.26077 | 35522 ft | 460 kts | 132° |
| 2026-05-06 07:33 | 46.92630 | 14.29874 | 35735 ft | 460 kts | 132° |
| 2026-05-06 07:34 | 46.90755 | 14.33659 | 35909 ft | 460 kts | 132° |
| 2026-05-06 07:34 | 46.88898 | 14.37398 | 36074 ft | 461 kts | 132° |
| 2026-05-06 07:34 | 46.87006 | 14.41199 | 36198 ft | 462 kts | 132° |
| 2026-05-06 07:34 | 46.85113 | 14.45001 | 36317 ft | 463 kts | 131° |
| 2026-05-06 07:35 | 46.83220 | 14.48803 | 36466 ft | 464 kts | 131° |
| 2026-05-06 07:35 | 46.81319 | 14.52618 | 36649 ft | 465 kts | 131° |
| 2026-05-06 07:35 | 46.79421 | 14.56425 | 36831 ft | 463 kts | 131° |
| 2026-05-06 07:35 | 46.77520 | 14.60231 | 36939 ft | 464 kts | 131° |
| 2026-05-06 07:36 | 46.73713 | 14.67824 | 36938 ft | 464 kts | 131° |
| 2026-05-06 07:36 | 46.69898 | 14.75409 | 36913 ft | 464 kts | 131° |
| 2026-05-06 07:37 | 46.66097 | 14.82946 | 36937 ft | 460 kts | 131° |
| 2026-05-06 07:37 | 46.62339 | 14.90373 | 36933 ft | 459 kts | 131° |
| 2026-05-06 07:38 | 46.58557 | 14.97841 | 36928 ft | 458 kts | 131° |
| 2026-05-06 07:38 | 46.54768 | 15.05300 | 36927 ft | 459 kts | 131° |
| 2026-05-06 07:39 | 46.50964 | 15.12769 | 36911 ft | 459 kts | 131° |
| 2026-05-06 07:39 | 46.47170 | 15.20205 | 36933 ft | 457 kts | 131° |
| 2026-05-06 07:40 | 46.43404 | 15.27555 | 36948 ft | 456 kts | 131° |
| 2026-05-06 07:40 | 46.39612 | 15.34920 | 36949 ft | 455 kts | 131° |
| 2026-05-06 07:41 | 46.35826 | 15.42272 | 36911 ft | 455 kts | 130° |
| 2026-05-06 07:41 | 46.32046 | 15.49615 | 36933 ft | 455 kts | 131° |
| 2026-05-06 07:42 | 46.28257 | 15.56940 | 36937 ft | 454 kts | 131° |
| 2026-05-06 07:42 | 46.24463 | 15.64237 | 36940 ft | 454 kts | 131° |
| 2026-05-06 07:43 | 46.20672 | 15.71523 | 36945 ft | 454 kts | 131° |
| 2026-05-06 07:43 | 46.16877 | 15.78798 | 36947 ft | 453 kts | 131° |
| 2026-05-06 07:44 | 46.13713 | 15.84835 | 36947 ft | 453 kts | 131° |
| 2026-05-06 07:44 | 46.09911 | 15.92096 | 36952 ft | 453 kts | 131° |
| 2026-05-06 07:45 | 46.06114 | 15.99338 | 36950 ft | 453 kts | 131° |
| 2026-05-06 07:45 | 46.02303 | 16.06575 | 36921 ft | 453 kts | 131° |
| 2026-05-06 07:46 | 45.98491 | 16.13783 | 36945 ft | 453 kts | 131° |
| 2026-05-06 07:46 | 45.94699 | 16.20943 | 36953 ft | 452 kts | 131° |
| 2026-05-06 07:47 | 45.90886 | 16.28129 | 36962 ft | 452 kts | 131° |
| 2026-05-06 07:47 | 45.87063 | 16.35303 | 36965 ft | 452 kts | 132° |
| 2026-05-06 07:48 | 45.83242 | 16.42470 | 36940 ft | 452 kts | 131° |
| 2026-05-06 07:48 | 45.79410 | 16.49634 | 36943 ft | 453 kts | 131° |
| 2026-05-06 07:49 | 45.75565 | 16.56802 | 36951 ft | 453 kts | 132° |
| 2026-05-06 07:49 | 45.71722 | 16.63948 | 36958 ft | 453 kts | 133° |
| 2026-05-06 07:50 | 45.67869 | 16.71101 | 36938 ft | 453 kts | 132° |